createdAt,value
2022-09-16T00:01:35.630Z,93115.56
2022-09-16T00:16:37.165Z,93144.31
2022-09-16T00:31:38.838Z,93131.22
2022-09-16T00:46:43.995Z,93120.50
2022-09-16T01:01:46.793Z,93144.03
2022-09-16T01:17:08.581Z,93147.53
2022-09-16T01:32:10.037Z,93147.72
2022-09-16T01:47:27.436Z,93135.97
2022-09-16T02:02:35.762Z,93111.28
2022-09-16T02:17:39.899Z,93118.72
2022-09-16T02:32:43.964Z,93128.91
2022-09-16T02:47:49.676Z,93155.34
2022-09-16T03:02:51.465Z,93146.75
2022-09-16T03:18:11.527Z,93180.13
2022-09-16T03:33:42.371Z,93171.63
2022-09-16T03:48:43.821Z,93114.13
2022-09-16T04:03:45.302Z,93156.25
2022-09-16T04:18:46.900Z,93219.97
2022-09-16T04:33:48.607Z,93195.66
2022-09-16T04:48:50.475Z,93210.09
2022-09-16T05:03:53.146Z,93205.72
2022-09-16T05:18:55.830Z,93186.13
2022-09-16T05:34:01.829Z,93177.03
2022-09-16T05:49:03.536Z,93166.63
2022-09-16T06:04:06.756Z,93169.00
2022-09-16T06:19:10.750Z,93169.56
2022-09-16T06:34:16.089Z,93170.78
2022-09-16T06:49:17.543Z,93179.22
2022-09-16T07:04:19.047Z,93169.72
2022-09-16T07:19:20.505Z,93169.06
2022-09-16T07:34:22.310Z,93182.13
2022-09-16T07:49:23.804Z,93144.56
2022-09-16T08:04:25.234Z,93119.50
2022-09-16T08:19:26.753Z,93120.75
2022-09-16T08:34:28.229Z,93124.81
2022-09-16T08:49:32.546Z,93111.13
2022-09-16T09:04:34.016Z,93098.28
2022-09-16T09:19:53.548Z,93104.88
2022-09-16T09:35:01.185Z,93107.22
2022-09-16T09:50:10.048Z,93123.25
2022-09-16T10:05:28.133Z,93158.50
2022-09-16T10:20:36.976Z,93255.50
2022-09-16T10:35:39.113Z,93347.06
2022-09-16T10:50:52.096Z,93359.72
2022-09-16T11:05:53.593Z,93266.97
2022-09-16T11:21:02.581Z,93174.78
2022-09-16T11:36:10.065Z,93117.25
2022-09-16T11:51:30.224Z,93084.84
2022-09-16T12:06:36.749Z,93069.97
2022-09-16T12:21:47.104Z,93102.56
2022-09-16T12:37:08.920Z,93136.91
2022-09-16T12:52:16.260Z,93176.94
2022-09-16T13:07:23.309Z,93233.50
2022-09-16T13:22:36.073Z,93255.56
2022-09-16T13:37:37.520Z,93207.13
2022-09-16T13:52:39.158Z,93090.84
2022-09-16T14:07:56.285Z,93127.94
2022-09-16T14:23:04.987Z,93163.03
2022-09-16T14:38:18.189Z,93108.59
2022-09-16T14:53:36.268Z,93109.22
2022-09-16T15:08:47.248Z,93133.91
2022-09-16T15:23:50.925Z,93144.06
2022-09-16T15:38:57.371Z,93001.78
2022-09-16T15:54:15.786Z,93016.25
2022-09-16T16:09:27.212Z,93036.88
2022-09-16T16:24:30.660Z,93030.59
2022-09-16T16:39:32.214Z,92995.09
2022-09-16T16:54:34.088Z,92964.88
2022-09-16T17:09:35.553Z,92948.34
2022-09-16T17:24:37.226Z,92964.50
2022-09-16T17:39:38.764Z,92963.38
2022-09-16T17:54:41.311Z,92980.22
2022-09-16T18:09:42.788Z,92985.94
2022-09-16T18:24:44.406Z,92979.88
2022-09-16T18:39:46.697Z,92993.66
2022-09-16T18:54:48.451Z,93000.31
2022-09-16T19:09:50.357Z,92984.06
2022-09-16T19:24:54.225Z,92943.03
2022-09-16T19:39:55.720Z,92959.72
2022-09-16T19:54:57.207Z,92965.91
2022-09-16T20:09:58.692Z,92936.50
2022-09-16T20:25:19.178Z,92958.03
2022-09-16T20:40:21.707Z,92949.13
2022-09-16T20:55:23.210Z,92953.31
2022-09-16T21:10:25.512Z,92948.19
2022-09-16T21:25:26.983Z,92920.97
2022-09-16T21:40:28.556Z,92883.38
2022-09-16T21:55:30.410Z,92891.28
2022-09-16T22:16:08.656Z,92884.41
2022-09-16T22:31:11.731Z,92873.94
2022-09-16T22:46:15.369Z,92874.41
2022-09-16T23:01:18.264Z,92853.97
2022-09-16T23:16:21.458Z,92838.59
2022-09-16T23:31:24.356Z,92854.47
2022-09-16T23:46:27.178Z,92818.78
